createdAt,value
2023-12-13T00:01:46.000Z,3.00
2023-12-13T00:05:47.804Z,3.23
2023-12-13T00:09:49.670Z,2.60
2023-12-13T00:13:55.740Z,2.60
2023-12-13T00:17:58.665Z,2.33
2023-12-13T00:22:00.707Z,1.92
2023-12-13T00:26:03.969Z,2.03
2023-12-13T00:30:06.476Z,1.67
2023-12-13T00:34:08.376Z,1.75
2023-12-13T00:38:10.561Z,1.42
2023-12-13T00:42:13.846Z,2.05
2023-12-13T00:46:21.430Z,2.00
2023-12-13T00:50:23.443Z,1.77
2023-12-13T00:54:26.234Z,1.98
2023-12-13T01:02:29.904Z,1.58
2023-12-13T01:06:31.630Z,2.10
2023-12-13T01:10:33.480Z,2.40
2023-12-13T01:14:35.197Z,2.20
2023-12-13T01:18:37.674Z,2.10
2023-12-13T01:22:39.550Z,2.42
2023-12-13T01:26:41.496Z,1.92
2023-12-13T01:30:43.236Z,1.30
2023-12-13T01:34:45.000Z,1.98
2023-12-13T01:38:46.753Z,2.83
2023-12-13T01:42:48.442Z,1.73
2023-12-13T01:46:51.034Z,1.70
2023-12-13T01:50:55.294Z,1.92
2023-12-13T01:54:57.646Z,1.77
2023-12-13T01:58:59.967Z,1.52
2023-12-13T02:03:01.896Z,1.70
2023-12-13T02:07:03.698Z,1.53
2023-12-13T02:11:05.886Z,1.70
2023-12-13T02:15:08.661Z,2.40
2023-12-13T02:19:12.127Z,2.40
2023-12-13T02:23:13.930Z,2.35
2023-12-13T02:27:16.073Z,1.73
2023-12-13T02:31:18.392Z,1.55
2023-12-13T02:35:20.142Z,2.35
2023-12-13T02:39:21.906Z,2.60
2023-12-13T02:43:23.752Z,1.63
2023-12-13T02:47:26.739Z,2.22
2023-12-13T02:51:28.476Z,1.60
2023-12-13T02:55:30.228Z,2.75
2023-12-13T02:59:32.748Z,2.58
2023-12-13T03:03:34.570Z,1.65
2023-12-13T03:07:36.602Z,2.47
2023-12-13T03:11:40.811Z,1.95
2023-12-13T03:15:42.560Z,2.10
2023-12-13T03:19:44.496Z,1.67
2023-12-13T03:23:46.311Z,1.57
2023-12-13T03:27:48.008Z,1.88
2023-12-13T03:31:49.830Z,1.45
2023-12-13T03:35:51.657Z,2.17
2023-12-13T03:39:53.394Z,1.30
2023-12-13T03:43:55.181Z,1.27
2023-12-13T03:47:57.028Z,1.58
2023-12-13T03:51:58.828Z,2.15
2023-12-13T03:56:01.272Z,1.05
2023-12-13T04:00:03.235Z,1.50
2023-12-13T04:04:14.519Z,1.25
2023-12-13T04:08:16.421Z,1.50
2023-12-13T04:12:18.432Z,1.27
2023-12-13T04:16:20.148Z,1.00
2023-12-13T04:20:21.965Z,1.42
2023-12-13T04:24:23.677Z,1.13
2023-12-13T04:28:25.358Z,1.52
2023-12-13T04:32:27.526Z,1.80
2023-12-13T04:36:29.448Z,1.25
2023-12-13T04:40:31.233Z,1.10
2023-12-13T04:44:33.076Z,1.60
2023-12-13T04:48:34.844Z,0.75
2023-12-13T04:52:37.179Z,1.42
2023-12-13T04:56:38.889Z,1.10
2023-12-13T05:00:40.646Z,1.33
2023-12-13T05:04:42.467Z,1.08
2023-12-13T05:08:44.410Z,1.23
2023-12-13T05:12:46.167Z,1.60
2023-12-13T05:16:47.917Z,1.60
2023-12-13T05:20:50.602Z,1.02
2023-12-13T05:24:52.403Z,1.38
2023-12-13T05:28:54.212Z,1.35
2023-12-13T05:32:56.065Z,1.83
2023-12-13T05:36:57.790Z,1.52
2023-12-13T05:41:01.034Z,1.50
2023-12-13T05:45:02.861Z,1.52
2023-12-13T05:49:09.805Z,1.40
2023-12-13T05:53:13.322Z,1.80
2023-12-13T05:57:15.244Z,1.38
2023-12-13T06:01:17.028Z,1.30
2023-12-13T06:05:19.353Z,1.40
2023-12-13T06:09:22.022Z,1.60
2023-12-13T06:13:23.816Z,1.75
2023-12-13T06:17:25.937Z,1.65
2023-12-13T06:21:28.025Z,1.27
2023-12-13T06:25:29.766Z,1.67
2023-12-13T06:29:31.463Z,1.10
2023-12-13T06:33:33.370Z,1.38
2023-12-13T06:37:35.393Z,1.50
2023-12-13T06:41:38.057Z,1.40
2023-12-13T06:45:39.946Z,1.48
2023-12-13T06:49:41.714Z,1.60
2023-12-13T06:53:43.420Z,1.55
2023-12-13T06:57:45.184Z,1.27
2023-12-13T07:01:47.016Z,1.33
2023-12-13T07:05:49.044Z,1.58
2023-12-13T07:09:50.870Z,1.63
2023-12-13T07:13:52.889Z,1.02
2023-12-13T07:17:55.281Z,1.10
2023-12-13T07:21:57.037Z,1.27
2023-12-13T07:25:58.997Z,1.05
2023-12-13T07:30:00.995Z,1.50
2023-12-13T07:34:03.988Z,1.02
2023-12-13T07:38:05.877Z,1.20
2023-12-13T07:42:07.651Z,1.45
2023-12-13T07:46:10.505Z,1.60
2023-12-13T07:50:12.614Z,1.70
2023-12-13T07:54:17.465Z,1.53
2023-12-13T07:58:20.578Z,1.80
2023-12-13T08:02:24.322Z,2.03
2023-12-13T08:06:26.148Z,1.48
2023-12-13T08:10:27.952Z,1.77
2023-12-13T08:14:32.314Z,1.42
2023-12-13T08:18:34.182Z,1.38
2023-12-13T08:22:35.978Z,1.80
2023-12-13T08:26:37.895Z,1.42
2023-12-13T08:30:39.867Z,1.30
2023-12-13T08:34:41.665Z,2.23
2023-12-13T08:38:43.648Z,1.80
2023-12-13T08:42:46.081Z,1.90
2023-12-13T08:46:48.674Z,2.30
2023-12-13T08:50:50.646Z,2.22
2023-12-13T08:54:52.616Z,2.70
2023-12-13T08:58:54.527Z,2.28
2023-12-13T09:02:56.289Z,3.20
2023-12-13T09:06:58.379Z,2.53
2023-12-13T09:11:00.435Z,2.40
2023-12-13T09:15:02.217Z,3.53
2023-12-13T09:19:04.167Z,3.55
2023-12-13T09:23:06.248Z,4.23
2023-12-13T09:27:08.105Z,4.17
2023-12-13T09:31:09.855Z,4.65
2023-12-13T09:35:11.668Z,5.68
2023-12-13T09:39:17.369Z,5.82
2023-12-13T09:43:19.513Z,6.30
2023-12-13T09:47:22.734Z,7.20
2023-12-13T09:51:25.341Z,5.63
2023-12-13T09:55:27.678Z,5.35
2023-12-13T09:59:29.493Z,5.13
2023-12-13T10:03:32.777Z,4.82
2023-12-13T10:07:34.579Z,5.30
2023-12-13T10:11:36.553Z,4.85
2023-12-13T10:15:38.415Z,4.60
2023-12-13T10:19:41.014Z,4.70
2023-12-13T10:23:42.841Z,4.20
2023-12-13T10:27:44.647Z,2.95
2023-12-13T10:31:46.970Z,3.30
2023-12-13T10:35:52.420Z,4.95
2023-12-13T10:39:57.674Z,2.63
2023-12-13T10:44:00.341Z,2.60
2023-12-13T10:48:09.512Z,2.42
2023-12-13T10:52:13.300Z,2.72
2023-12-13T10:56:16.274Z,2.53
2023-12-13T11:00:18.620Z,3.00
2023-12-13T11:04:21.556Z,2.33
2023-12-13T11:12:25.568Z,2.50
2023-12-13T11:16:27.450Z,2.17
2023-12-13T11:20:29.839Z,2.38
2023-12-13T11:24:37.893Z,1.60
2023-12-13T11:28:39.704Z,1.48
2023-12-13T11:32:47.016Z,1.27
2023-12-13T11:36:48.849Z,1.38
2023-12-13T11:40:50.755Z,1.35
2023-12-13T11:44:52.721Z,1.60
2023-12-13T11:48:54.444Z,1.33
2023-12-13T11:52:56.344Z,1.30
2023-12-13T11:56:58.087Z,1.02
2023-12-13T12:01:00.429Z,1.20
2023-12-13T12:05:07.771Z,1.30
2023-12-13T12:09:09.863Z,1.30
2023-12-13T12:13:14.745Z,1.60
2023-12-13T12:17:21.945Z,1.13
2023-12-13T12:21:24.402Z,1.20
2023-12-13T12:25:29.459Z,1.50
2023-12-13T12:29:31.888Z,1.10
2023-12-13T12:33:33.776Z,1.08
2023-12-13T12:37:35.809Z,1.43
2023-12-13T12:41:37.814Z,1.30
2023-12-13T12:45:39.643Z,1.10
2023-12-13T12:49:42.127Z,1.27
2023-12-13T12:53:44.082Z,1.55
2023-12-13T12:57:46.430Z,1.30
2023-12-13T13:01:48.670Z,1.45
2023-12-13T13:05:50.462Z,1.42
2023-12-13T13:09:53.261Z,1.45
2023-12-13T13:13:55.160Z,1.60
2023-12-13T13:17:56.890Z,1.63
2023-12-13T13:22:03.253Z,1.33
2023-12-13T13:26:11.449Z,1.33
2023-12-13T13:30:15.172Z,1.35
2023-12-13T13:34:18.098Z,1.13
2023-12-13T13:42:25.569Z,0.95
2023-12-13T13:46:27.321Z,0.95
2023-12-13T13:50:29.304Z,1.02
2023-12-13T13:54:31.208Z,1.10
2023-12-13T13:58:33.008Z,3.08
2023-12-13T14:02:35.085Z,1.73
2023-12-13T14:06:36.843Z,1.20
2023-12-13T14:10:38.695Z,1.30
2023-12-13T14:14:40.506Z,1.13
2023-12-13T14:18:42.272Z,1.58
2023-12-13T14:22:44.208Z,1.85
2023-12-13T14:26:46.108Z,1.70
2023-12-13T14:30:47.857Z,1.70
2023-12-13T14:34:49.800Z,1.73
2023-12-13T14:38:51.497Z,1.80
2023-12-13T14:42:54.000Z,1.25
2023-12-13T14:46:56.383Z,1.63
2023-12-13T14:50:58.273Z,1.55
2023-12-13T14:55:00.264Z,1.27
2023-12-13T14:59:01.994Z,2.43
2023-12-13T15:03:06.080Z,1.48
2023-12-13T15:07:08.716Z,1.50
2023-12-13T15:11:10.579Z,1.80
2023-12-13T15:15:12.650Z,1.52
2023-12-13T15:19:15.332Z,2.03
2023-12-13T15:23:19.579Z,2.20
2023-12-13T15:27:21.529Z,2.10
2023-12-13T15:31:25.188Z,2.10
2023-12-13T15:35:26.942Z,2.63
2023-12-13T15:39:28.693Z,3.17
2023-12-13T15:43:30.927Z,2.97
2023-12-13T15:47:33.897Z,2.33
2023-12-13T15:51:35.901Z,4.20
2023-12-13T15:55:37.706Z,3.15
2023-12-13T15:59:39.530Z,2.08
2023-12-13T16:03:41.351Z,1.67
2023-12-13T16:07:45.128Z,2.20
2023-12-13T16:11:46.935Z,1.42
2023-12-13T16:15:48.839Z,1.45
2023-12-13T16:19:50.553Z,1.27
2023-12-13T16:23:52.426Z,1.50
2023-12-13T16:27:54.165Z,1.83
2023-12-13T16:31:55.911Z,2.15
2023-12-13T16:35:57.781Z,2.25
2023-12-13T16:39:59.535Z,1.90
2023-12-13T16:44:04.357Z,1.80
2023-12-13T16:48:06.490Z,1.83
2023-12-13T16:52:08.235Z,1.70
2023-12-13T16:56:10.079Z,1.67
2023-12-13T17:00:12.646Z,1.55
2023-12-13T17:04:14.453Z,1.85
2023-12-13T17:08:16.278Z,1.52
2023-12-13T17:12:21.213Z,2.00
2023-12-13T17:16:23.033Z,1.80
2023-12-13T17:20:24.812Z,1.60
2023-12-13T17:24:32.720Z,2.00
2023-12-13T17:28:34.727Z,1.75
2023-12-13T17:32:37.078Z,2.03
2023-12-13T17:36:39.014Z,2.20
2023-12-13T17:40:40.704Z,2.35
2023-12-13T17:44:42.544Z,2.63
2023-12-13T17:48:44.393Z,2.30
2023-12-13T17:52:46.112Z,2.60
2023-12-13T17:56:47.913Z,3.85
2023-12-13T18:00:51.788Z,2.75
2023-12-13T18:04:54.028Z,2.60
2023-12-13T18:08:56.254Z,3.67
2023-12-13T18:12:58.025Z,3.63
2023-12-13T18:16:59.776Z,3.17
2023-12-13T18:21:03.899Z,3.90
2023-12-13T18:25:06.200Z,3.10
2023-12-13T18:29:07.943Z,3.03
2023-12-13T18:33:09.649Z,3.67
2023-12-13T18:37:11.886Z,3.53
2023-12-13T18:41:13.625Z,3.53
2023-12-13T18:45:17.164Z,3.00
2023-12-13T18:49:18.968Z,3.78
2023-12-13T18:53:21.081Z,3.20
2023-12-13T18:57:23.865Z,2.93
2023-12-13T19:01:25.664Z,2.53
2023-12-13T19:05:28.838Z,2.80
2023-12-13T19:09:33.360Z,3.20
2023-12-13T19:13:36.616Z,2.90
2023-12-13T19:17:40.337Z,2.33
2023-12-13T19:21:42.183Z,2.17
2023-12-13T19:25:43.996Z,2.13
2023-12-13T19:29:45.753Z,2.53
2023-12-13T19:33:47.687Z,3.15
2023-12-13T19:37:49.649Z,3.03
2023-12-13T19:41:51.379Z,3.17
2023-12-13T19:45:53.164Z,3.30
2023-12-13T19:49:55.955Z,3.03
2023-12-13T19:57:59.306Z,3.00
2023-12-13T20:02:02.431Z,3.17
2023-12-13T20:06:04.602Z,3.85
2023-12-13T20:10:07.176Z,3.03
2023-12-13T20:14:09.090Z,3.67
2023-12-13T20:18:10.978Z,2.92
2023-12-13T20:22:12.714Z,3.75
2023-12-13T20:26:15.045Z,4.65
2023-12-13T20:30:16.970Z,4.28
2023-12-13T20:34:18.821Z,4.85
2023-12-13T20:38:23.101Z,4.45
2023-12-13T20:42:25.103Z,4.43
2023-12-13T20:46:26.927Z,4.03
2023-12-13T20:50:28.685Z,4.85
2023-12-13T20:54:30.896Z,4.95
2023-12-13T20:58:32.643Z,5.00
2023-12-13T21:02:34.466Z,5.47
2023-12-13T21:06:36.290Z,6.55
2023-12-13T21:10:39.013Z,6.35
2023-12-13T21:14:40.791Z,6.20
2023-12-13T21:18:42.615Z,6.68
2023-12-13T21:22:44.975Z,8.52
2023-12-13T21:26:46.834Z,8.75
2023-12-13T21:30:48.666Z,9.30
2023-12-13T21:34:50.499Z,10.10
2023-12-13T21:38:52.197Z,9.75
2023-12-13T21:42:53.920Z,9.02
2023-12-13T21:46:55.973Z,9.00
2023-12-13T21:50:57.709Z,10.03
2023-12-13T21:54:59.490Z,9.18
2023-12-13T21:59:04.569Z,10.93
2023-12-13T22:03:06.317Z,10.15
2023-12-13T22:07:08.256Z,9.73
2023-12-13T22:11:11.006Z,10.23
2023-12-13T22:15:13.098Z,10.65
2023-12-13T22:19:33.292Z,11.32
2023-12-13T22:23:47.193Z,10.30
2023-12-13T22:27:52.718Z,10.10
2023-12-13T22:31:54.540Z,10.03
2023-12-13T22:35:58.160Z,8.88
2023-12-13T22:44:02.256Z,9.40
2023-12-13T22:48:05.219Z,9.63
2023-12-13T22:52:20.122Z,10.27
2023-12-13T22:56:25.854Z,9.07
2023-12-13T23:00:29.091Z,8.90
2023-12-13T23:04:31.136Z,10.27
2023-12-13T23:08:32.986Z,9.37
2023-12-13T23:12:34.990Z,9.80
2023-12-13T23:16:38.283Z,9.63
2023-12-13T23:20:40.508Z,10.43
2023-12-13T23:24:42.378Z,11.97
2023-12-13T23:28:45.382Z,11.05
2023-12-13T23:32:47.248Z,11.00
2023-12-13T23:36:49.043Z,11.25
2023-12-13T23:40:51.232Z,10.90
2023-12-13T23:44:53.368Z,12.25
2023-12-13T23:48:58.768Z,11.82
2023-12-13T23:53:00.665Z,12.77
2023-12-13T23:57:02.589Z,13.57
